sensor_id;sensor_type;location;lat;lon;timestamp;P1;durP1;ratioP1;P2;durP2;ratioP2
7511;SDS011;9999;48.780;9.146;2023-05-16T00:01:45;1.67;;;1.38;;
7511;SDS011;9999;48.780;9.146;2023-05-16T00:04:13;1.13;;;1.13;;
7511;SDS011;9999;48.780;9.146;2023-05-16T00:06:40;2.55;;;1.50;;
7511;SDS011;9999;48.780;9.146;2023-05-16T00:09:07;0.63;;;0.60;;
7511;SDS011;9999;48.780;9.146;2023-05-16T00:11:33;1.42;;;1.30;;
7511;SDS011;9999;48.780;9.146;2023-05-16T00:14:00;1.35;;;1.27;;
7511;SDS011;9999;48.780;9.146;2023-05-16T00:16:27;2.25;;;2.10;;
7511;SDS011;9999;48.780;9.146;2023-05-16T00:18:54;2.55;;;1.52;;
7511;SDS011;9999;48.780;9.146;2023-05-16T00:21:23;1.35;;;1.27;;
7511;SDS011;9999;48.780;9.146;2023-05-16T00:23:50;2.05;;;1.83;;
7511;SDS011;9999;48.780;9.146;2023-05-16T00:26:17;1.73;;;1.63;;
7511;SDS011;9999;48.780;9.146;2023-05-16T00:28:44;1.08;;;0.80;;
7511;SDS011;9999;48.780;9.146;2023-05-16T00:31:10;1.50;;;1.40;;
7511;SDS011;9999;48.780;9.146;2023-05-16T00:33:37;0.88;;;0.88;;
7511;SDS011;9999;48.780;9.146;2023-05-16T00:36:04;2.03;;;1.90;;
7511;SDS011;9999;48.780;9.146;2023-05-16T00:38:32;3.95;;;2.47;;
7511;SDS011;9999;48.780;9.146;2023-05-16T00:40:59;1.38;;;1.33;;
7511;SDS011;9999;48.780;9.146;2023-05-16T00:43:27;1.73;;;1.63;;
7511;SDS011;9999;48.780;9.146;2023-05-16T00:45:54;2.25;;;2.15;;
7511;SDS011;9999;48.780;9.146;2023-05-16T00:48:21;2.13;;;1.98;;
7511;SDS011;9999;48.780;9.146;2023-05-16T00:50:49;6.22;;;2.40;;
7511;SDS011;9999;48.780;9.146;2023-05-16T00:53:17;2.13;;;2.03;;
7511;SDS011;9999;48.780;9.146;2023-05-16T00:55:46;2.38;;;2.00;;
7511;SDS011;9999;48.780;9.146;2023-05-16T00:58:13;2.83;;;2.45;;
7511;SDS011;9999;48.780;9.146;2023-05-16T01:00:40;4.70;;;2.60;;
7511;SDS011;9999;48.780;9.146;2023-05-16T01:03:07;1.73;;;1.63;;
7511;SDS011;9999;48.780;9.146;2023-05-16T01:05:34;2.88;;;1.58;;
7511;SDS011;9999;48.780;9.146;2023-05-16T01:08:00;2.30;;;2.13;;
7511;SDS011;9999;48.780;9.146;2023-05-16T01:10:28;2.13;;;1.88;;
7511;SDS011;9999;48.780;9.146;2023-05-16T01:13:05;2.10;;;1.90;;
7511;SDS011;9999;48.780;9.146;2023-05-16T01:15:38;2.33;;;2.22;;
7511;SDS011;9999;48.780;9.146;2023-05-16T01:18:14;3.05;;;2.33;;
7511;SDS011;9999;48.780;9.146;2023-05-16T01:20:48;4.45;;;2.45;;
7511;SDS011;9999;48.780;9.146;2023-05-16T01:23:23;8.18;;;4.00;;
7511;SDS011;9999;48.780;9.146;2023-05-16T01:26:10;4.10;;;3.17;;
7511;SDS011;9999;48.780;9.146;2023-05-16T01:28:40;2.22;;;1.20;;
7511;SDS011;9999;48.780;9.146;2023-05-16T01:31:10;7.30;;;3.17;;
7511;SDS011;9999;48.780;9.146;2023-05-16T01:33:36;3.33;;;3.13;;
7511;SDS011;9999;48.780;9.146;2023-05-16T01:36:05;2.13;;;1.92;;
7511;SDS011;9999;48.780;9.146;2023-05-16T01:38:38;3.92;;;3.03;;
7511;SDS011;9999;48.780;9.146;2023-05-16T01:41:12;4.38;;;3.03;;
7511;SDS011;9999;48.780;9.146;2023-05-16T01:43:45;7.18;;;4.00;;
7511;SDS011;9999;48.780;9.146;2023-05-16T01:46:15;3.92;;;2.63;;
7511;SDS011;9999;48.780;9.146;2023-05-16T01:48:48;3.60;;;3.10;;
7511;SDS011;9999;48.780;9.146;2023-05-16T01:51:19;5.57;;;4.00;;
7511;SDS011;9999;48.780;9.146;2023-05-16T01:53:48;5.85;;;2.83;;
7511;SDS011;9999;48.780;9.146;2023-05-16T01:56:17;2.72;;;2.53;;
7511;SDS011;9999;48.780;9.146;2023-05-16T01:58:47;8.70;;;3.85;;
7511;SDS011;9999;48.780;9.146;2023-05-16T02:01:16;3.47;;;2.70;;
7511;SDS011;9999;48.780;9.146;2023-05-16T02:03:43;6.00;;;3.53;;
7511;SDS011;9999;48.780;9.146;2023-05-16T02:06:09;3.90;;;3.25;;
7511;SDS011;9999;48.780;9.146;2023-05-16T02:08:36;4.05;;;3.65;;
7511;SDS011;9999;48.780;9.146;2023-05-16T02:11:03;5.40;;;4.68;;
7511;SDS011;9999;48.780;9.146;2023-05-16T02:13:31;4.85;;;3.80;;
7511;SDS011;9999;48.780;9.146;2023-05-16T02:16:02;4.50;;;3.90;;
7511;SDS011;9999;48.780;9.146;2023-05-16T02:18:29;6.22;;;5.63;;
7511;SDS011;9999;48.780;9.146;2023-05-16T02:20:56;3.47;;;3.28;;
7511;SDS011;9999;48.780;9.146;2023-05-16T02:23:22;3.42;;;3.17;;
7511;SDS011;9999;48.780;9.146;2023-05-16T02:25:49;6.30;;;3.58;;
7511;SDS011;9999;48.780;9.146;2023-05-16T02:28:16;5.32;;;3.95;;
7511;SDS011;9999;48.780;9.146;2023-05-16T02:30:44;4.38;;;2.97;;
7511;SDS011;9999;48.780;9.146;2023-05-16T02:33:11;3.80;;;3.35;;
7511;SDS011;9999;48.780;9.146;2023-05-16T02:35:37;3.83;;;3.45;;
7511;SDS011;9999;48.780;9.146;2023-05-16T02:38:05;4.90;;;4.38;;
7511;SDS011;9999;48.780;9.146;2023-05-16T02:40:31;8.10;;;5.13;;
7511;SDS011;9999;48.780;9.146;2023-05-16T02:42:58;10.07;;;4.70;;
7511;SDS011;9999;48.780;9.146;2023-05-16T02:45:25;3.72;;;3.03;;
7511;SDS011;9999;48.780;9.146;2023-05-16T02:47:53;3.33;;;3.03;;
7511;SDS011;9999;48.780;9.146;2023-05-16T02:50:20;6.40;;;3.15;;
7511;SDS011;9999;48.780;9.146;2023-05-16T02:52:47;7.13;;;4.72;;
7511;SDS011;9999;48.780;9.146;2023-05-16T02:55:13;4.47;;;4.05;;
7511;SDS011;9999;48.780;9.146;2023-05-16T02:57:40;4.57;;;3.72;;
7511;SDS011;9999;48.780;9.146;2023-05-16T03:00:11;6.22;;;3.80;;
7511;SDS011;9999;48.780;9.146;2023-05-16T03:02:38;4.03;;;3.63;;
7511;SDS011;9999;48.780;9.146;2023-05-16T03:05:07;5.18;;;4.50;;
7511;SDS011;9999;48.780;9.146;2023-05-16T03:07:35;5.10;;;3.85;;
7511;SDS011;9999;48.780;9.146;2023-05-16T03:10:04;6.95;;;4.90;;
7511;SDS011;9999;48.780;9.146;2023-05-16T03:12:31;5.05;;;4.65;;
7511;SDS011;9999;48.780;9.146;2023-05-16T03:14:58;4.78;;;4.38;;
7511;SDS011;9999;48.780;9.146;2023-05-16T03:17:25;3.40;;;3.03;;
7511;SDS011;9999;48.780;9.146;2023-05-16T03:19:52;5.75;;;4.32;;
7511;SDS011;9999;48.780;9.146;2023-05-16T03:22:20;4.32;;;3.92;;
7511;SDS011;9999;48.780;9.146;2023-05-16T03:24:47;3.78;;;3.47;;
7511;SDS011;9999;48.780;9.146;2023-05-16T03:27:14;5.78;;;3.50;;
7511;SDS011;9999;48.780;9.146;2023-05-16T03:29:41;2.90;;;2.67;;
7511;SDS011;9999;48.780;9.146;2023-05-16T03:32:09;4.40;;;3.97;;
7511;SDS011;9999;48.780;9.146;2023-05-16T03:34:36;14.88;;;5.32;;
7511;SDS011;9999;48.780;9.146;2023-05-16T03:37:03;13.52;;;4.65;;
7511;SDS011;9999;48.780;9.146;2023-05-16T03:39:31;9.70;;;5.18;;
7511;SDS011;9999;48.780;9.146;2023-05-16T03:41:58;5.05;;;3.97;;
7511;SDS011;9999;48.780;9.146;2023-05-16T03:44:25;4.20;;;3.85;;
7511;SDS011;9999;48.780;9.146;2023-05-16T03:46:52;6.00;;;3.88;;
7511;SDS011;9999;48.780;9.146;2023-05-16T03:49:22;4.55;;;2.63;;
7511;SDS011;9999;48.780;9.146;2023-05-16T03:51:51;5.45;;;4.80;;
7511;SDS011;9999;48.780;9.146;2023-05-16T03:54:18;5.65;;;4.05;;
7511;SDS011;9999;48.780;9.146;2023-05-16T03:56:46;10.02;;;4.68;;
7511;SDS011;9999;48.780;9.146;2023-05-16T03:59:12;9.18;;;5.50;;
7511;SDS011;9999;48.780;9.146;2023-05-16T04:01:39;7.00;;;5.60;;
7511;SDS011;9999;48.780;9.146;2023-05-16T04:04:06;6.32;;;5.72;;
7511;SDS011;9999;48.780;9.146;2023-05-16T04:06:32;4.43;;;3.92;;
7511;SDS011;9999;48.780;9.146;2023-05-16T04:09:00;9.07;;;4.47;;
7511;SDS011;9999;48.780;9.146;2023-05-16T04:11:26;18.67;;;6.72;;
7511;SDS011;9999;48.780;9.146;2023-05-16T04:13:54;7.43;;;5.18;;
7511;SDS011;9999;48.780;9.146;2023-05-16T04:16:21;9.68;;;6.40;;
7511;SDS011;9999;48.780;9.146;2023-05-16T04:18:48;6.38;;;4.70;;
7511;SDS011;9999;48.780;9.146;2023-05-16T04:21:15;7.00;;;5.38;;
7511;SDS011;9999;48.780;9.146;2023-05-16T04:23:41;5.20;;;4.00;;
7511;SDS011;9999;48.780;9.146;2023-05-16T04:26:08;6.05;;;4.93;;
7511;SDS011;9999;48.780;9.146;2023-05-16T04:28:35;6.93;;;4.68;;
7511;SDS011;9999;48.780;9.146;2023-05-16T04:31:03;8.05;;;5.70;;
7511;SDS011;9999;48.780;9.146;2023-05-16T04:33:30;10.73;;;4.80;;
7511;SDS011;9999;48.780;9.146;2023-05-16T04:36:00;4.45;;;4.10;;
7511;SDS011;9999;48.780;9.146;2023-05-16T04:38:27;5.07;;;3.92;;
7511;SDS011;9999;48.780;9.146;2023-05-16T04:40:55;15.82;;;5.55;;
7511;SDS011;9999;48.780;9.146;2023-05-16T04:43:22;5.90;;;5.40;;
7511;SDS011;9999;48.780;9.146;2023-05-16T04:45:48;11.27;;;6.53;;
7511;SDS011;9999;48.780;9.146;2023-05-16T04:48:19;8.60;;;5.45;;
7511;SDS011;9999;48.780;9.146;2023-05-16T04:50:46;4.82;;;4.32;;
7511;SDS011;9999;48.780;9.146;2023-05-16T04:53:12;3.35;;;3.13;;
7511;SDS011;9999;48.780;9.146;2023-05-16T04:55:39;4.47;;;4.05;;
7511;SDS011;9999;48.780;9.146;2023-05-16T04:58:06;8.40;;;5.50;;
7511;SDS011;9999;48.780;9.146;2023-05-16T05:00:33;6.13;;;4.85;;
7511;SDS011;9999;48.780;9.146;2023-05-16T05:03:00;4.55;;;4.22;;
7511;SDS011;9999;48.780;9.146;2023-05-16T05:05:28;9.30;;;6.30;;
7511;SDS011;9999;48.780;9.146;2023-05-16T05:07:56;5.30;;;4.45;;
7511;SDS011;9999;48.780;9.146;2023-05-16T05:10:23;4.55;;;3.60;;
7511;SDS011;9999;48.780;9.146;2023-05-16T05:12:51;11.63;;;4.45;;
7511;SDS011;9999;48.780;9.146;2023-05-16T05:15:18;6.55;;;4.68;;
7511;SDS011;9999;48.780;9.146;2023-05-16T05:17:45;7.20;;;4.85;;
7511;SDS011;9999;48.780;9.146;2023-05-16T05:20:12;7.57;;;5.03;;
7511;SDS011;9999;48.780;9.146;2023-05-16T05:22:40;10.35;;;5.22;;
7511;SDS011;9999;48.780;9.146;2023-05-16T05:25:07;5.40;;;4.13;;
7511;SDS011;9999;48.780;9.146;2023-05-16T05:27:34;9.77;;;4.25;;
7511;SDS011;9999;48.780;9.146;2023-05-16T05:30:01;13.10;;;6.35;;
7511;SDS011;9999;48.780;9.146;2023-05-16T05:32:28;3.58;;;3.28;;
7511;SDS011;9999;48.780;9.146;2023-05-16T05:34:55;5.60;;;3.85;;
7511;SDS011;9999;48.780;9.146;2023-05-16T05:37:22;13.27;;;5.13;;
7511;SDS011;9999;48.780;9.146;2023-05-16T05:39:50;4.28;;;3.78;;
7511;SDS011;9999;48.780;9.146;2023-05-16T05:42:17;6.38;;;5.70;;
7511;SDS011;9999;48.780;9.146;2023-05-16T05:44:44;15.15;;;5.55;;
7511;SDS011;9999;48.780;9.146;2023-05-16T05:47:11;8.13;;;5.18;;
7511;SDS011;9999;48.780;9.146;2023-05-16T05:49:38;14.80;;;6.93;;
7511;SDS011;9999;48.780;9.146;2023-05-16T05:52:05;5.50;;;4.45;;
7511;SDS011;9999;48.780;9.146;2023-05-16T05:54:32;8.48;;;5.50;;
7511;SDS011;9999;48.780;9.146;2023-05-16T05:57:00;5.97;;;5.38;;
7511;SDS011;9999;48.780;9.146;2023-05-16T05:59:27;8.10;;;4.70;;
7511;SDS011;9999;48.780;9.146;2023-05-16T06:01:54;5.05;;;4.50;;
7511;SDS011;9999;48.780;9.146;2023-05-16T06:04:22;8.40;;;4.72;;
7511;SDS011;9999;48.780;9.146;2023-05-16T06:06:48;6.85;;;4.50;;
7511;SDS011;9999;48.780;9.146;2023-05-16T06:09:15;7.40;;;6.60;;
7511;SDS011;9999;48.780;9.146;2023-05-16T06:11:42;7.28;;;5.68;;
7511;SDS011;9999;48.780;9.146;2023-05-16T06:14:11;5.50;;;4.82;;
7511;SDS011;9999;48.780;9.146;2023-05-16T06:16:39;9.80;;;5.63;;
7511;SDS011;9999;48.780;9.146;2023-05-16T06:19:06;5.45;;;4.93;;
7511;SDS011;9999;48.780;9.146;2023-05-16T06:21:33;11.63;;;6.18;;
7511;SDS011;9999;48.780;9.146;2023-05-16T06:23:59;7.38;;;4.90;;
7511;SDS011;9999;48.780;9.146;2023-05-16T06:26:27;5.88;;;4.20;;
7511;SDS011;9999;48.780;9.146;2023-05-16T06:28:54;4.38;;;3.63;;
7511;SDS011;9999;48.780;9.146;2023-05-16T06:31:22;5.75;;;5.25;;
7511;SDS011;9999;48.780;9.146;2023-05-16T06:33:49;5.13;;;4.57;;
7511;SDS011;9999;48.780;9.146;2023-05-16T06:36:15;3.92;;;3.63;;
7511;SDS011;9999;48.780;9.146;2023-05-16T06:38:42;4.97;;;4.03;;
7511;SDS011;9999;48.780;9.146;2023-05-16T06:41:09;8.70;;;6.53;;
7511;SDS011;9999;48.780;9.146;2023-05-16T06:43:36;30.08;;;4.93;;
7511;SDS011;9999;48.780;9.146;2023-05-16T06:46:02;4.15;;;3.78;;
7511;SDS011;9999;48.780;9.146;2023-05-16T06:48:30;5.65;;;4.30;;
7511;SDS011;9999;48.780;9.146;2023-05-16T06:50:57;8.70;;;5.93;;
7511;SDS011;9999;48.780;9.146;2023-05-16T06:53:24;6.13;;;4.20;;
7511;SDS011;9999;48.780;9.146;2023-05-16T06:55:51;5.00;;;4.28;;
7511;SDS011;9999;48.780;9.146;2023-05-16T06:58:18;9.63;;;5.00;;
7511;SDS011;9999;48.780;9.146;2023-05-16T07:00:45;3.03;;;2.55;;
7511;SDS011;9999;48.780;9.146;2023-05-16T07:03:11;4.35;;;3.33;;
7511;SDS011;9999;48.780;9.146;2023-05-16T07:05:40;25.58;;;4.65;;
7511;SDS011;9999;48.780;9.146;2023-05-16T07:08:07;4.50;;;4.00;;
7511;SDS011;9999;48.780;9.146;2023-05-16T07:10:34;3.72;;;3.40;;
7511;SDS011;9999;48.780;9.146;2023-05-16T07:13:00;6.80;;;3.53;;
7511;SDS011;9999;48.780;9.146;2023-05-16T07:15:29;4.70;;;2.75;;
7511;SDS011;9999;48.780;9.146;2023-05-16T07:17:56;2.72;;;2.53;;
7511;SDS011;9999;48.780;9.146;2023-05-16T07:20:22;5.32;;;3.20;;
7511;SDS011;9999;48.780;9.146;2023-05-16T07:22:51;2.83;;;2.58;;
7511;SDS011;9999;48.780;9.146;2023-05-16T07:25:17;4.13;;;3.00;;
7511;SDS011;9999;48.780;9.146;2023-05-16T07:27:44;6.55;;;3.20;;
7511;SDS011;9999;48.780;9.146;2023-05-16T07:30:11;2.33;;;2.17;;
7511;SDS011;9999;48.780;9.146;2023-05-16T07:32:39;2.70;;;2.47;;
7511;SDS011;9999;48.780;9.146;2023-05-16T07:35:07;2.92;;;2.40;;
7511;SDS011;9999;48.780;9.146;2023-05-16T07:37:35;7.32;;;2.83;;
7511;SDS011;9999;48.780;9.146;2023-05-16T07:40:03;2.92;;;2.58;;
7511;SDS011;9999;48.780;9.146;2023-05-16T07:42:31;2.35;;;2.08;;
7511;SDS011;9999;48.780;9.146;2023-05-16T07:44:57;3.15;;;1.83;;
7511;SDS011;9999;48.780;9.146;2023-05-16T07:47:24;1.83;;;1.73;;
7511;SDS011;9999;48.780;9.146;2023-05-16T07:49:51;2.08;;;1.98;;
7511;SDS011;9999;48.780;9.146;2023-05-16T07:52:18;2.20;;;1.85;;
7511;SDS011;9999;48.780;9.146;2023-05-16T07:54:45;1.00;;;1.00;;
7511;SDS011;9999;48.780;9.146;2023-05-16T07:57:13;2.33;;;2.13;;
7511;SDS011;9999;48.780;9.146;2023-05-16T07:59:40;1.95;;;1.50;;
7511;SDS011;9999;48.780;9.146;2023-05-16T08:02:08;1.50;;;1.45;;
7511;SDS011;9999;48.780;9.146;2023-05-16T08:04:35;2.67;;;2.47;;
7511;SDS011;9999;48.780;9.146;2023-05-16T08:07:02;2.25;;;1.95;;
7511;SDS011;9999;48.780;9.146;2023-05-16T08:09:30;1.55;;;1.55;;
7511;SDS011;9999;48.780;9.146;2023-05-16T08:11:56;0.93;;;0.93;;
7511;SDS011;9999;48.780;9.146;2023-05-16T08:14:28;3.30;;;2.25;;
7511;SDS011;9999;48.780;9.146;2023-05-16T08:16:56;1.80;;;1.58;;
7511;SDS011;9999;48.780;9.146;2023-05-16T08:19:23;1.38;;;1.33;;
7511;SDS011;9999;48.780;9.146;2023-05-16T08:21:50;1.95;;;1.85;;
7511;SDS011;9999;48.780;9.146;2023-05-16T08:24:17;5.05;;;1.55;;
7511;SDS011;9999;48.780;9.146;2023-05-16T08:26:44;2.72;;;2.47;;
7511;SDS011;9999;48.780;9.146;2023-05-16T08:29:10;1.40;;;1.30;;
7511;SDS011;9999;48.780;9.146;2023-05-16T08:31:39;2.20;;;1.98;;
7511;SDS011;9999;48.780;9.146;2023-05-16T08:34:05;2.45;;;2.35;;
7511;SDS011;9999;48.780;9.146;2023-05-16T08:36:33;4.10;;;2.30;;
7511;SDS011;9999;48.780;9.146;2023-05-16T08:39:00;1.67;;;1.48;;
7511;SDS011;9999;48.780;9.146;2023-05-16T08:41:27;1.77;;;1.67;;
7511;SDS011;9999;48.780;9.146;2023-05-16T08:43:54;2.13;;;1.98;;
7511;SDS011;9999;48.780;9.146;2023-05-16T08:46:22;2.97;;;1.83;;
7511;SDS011;9999;48.780;9.146;2023-05-16T08:48:51;1.52;;;1.42;;
7511;SDS011;9999;48.780;9.146;2023-05-16T08:51:19;1.73;;;1.65;;
7511;SDS011;9999;48.780;9.146;2023-05-16T08:53:49;3.42;;;3.10;;
7511;SDS011;9999;48.780;9.146;2023-05-16T08:56:20;3.55;;;3.17;;
7511;SDS011;9999;48.780;9.146;2023-05-16T08:58:49;3.40;;;1.98;;
7511;SDS011;9999;48.780;9.146;2023-05-16T09:01:19;2.88;;;2.10;;
7511;SDS011;9999;48.780;9.146;2023-05-16T09:03:47;2.47;;;2.38;;
7511;SDS011;9999;48.780;9.146;2023-05-16T09:06:16;3.75;;;2.63;;
7511;SDS011;9999;48.780;9.146;2023-05-16T09:08:43;2.15;;;2.03;;
7511;SDS011;9999;48.780;9.146;2023-05-16T09:11:10;12.18;;;3.53;;
7511;SDS011;9999;48.780;9.146;2023-05-16T09:13:37;1.98;;;1.50;;
7511;SDS011;9999;48.780;9.146;2023-05-16T09:16:08;3.08;;;2.30;;
7511;SDS011;9999;48.780;9.146;2023-05-16T09:18:37;7.30;;;3.20;;
7511;SDS011;9999;48.780;9.146;2023-05-16T09:21:04;2.03;;;1.92;;
7511;SDS011;9999;48.780;9.146;2023-05-16T09:23:34;3.72;;;2.97;;
7511;SDS011;9999;48.780;9.146;2023-05-16T09:26:01;2.70;;;2.50;;
7511;SDS011;9999;48.780;9.146;2023-05-16T09:28:28;3.17;;;2.65;;
7511;SDS011;9999;48.780;9.146;2023-05-16T09:30:55;5.57;;;2.92;;
7511;SDS011;9999;48.780;9.146;2023-05-16T09:33:24;2.95;;;2.72;;
7511;SDS011;9999;48.780;9.146;2023-05-16T09:35:56;2.97;;;2.78;;
7511;SDS011;9999;48.780;9.146;2023-05-16T09:38:23;4.03;;;3.60;;
7511;SDS011;9999;48.780;9.146;2023-05-16T09:40:52;3.22;;;2.92;;
7511;SDS011;9999;48.780;9.146;2023-05-16T09:43:21;3.22;;;1.98;;
7511;SDS011;9999;48.780;9.146;2023-05-16T09:45:51;3.30;;;2.97;;
7511;SDS011;9999;48.780;9.146;2023-05-16T09:48:19;3.60;;;3.30;;
7511;SDS011;9999;48.780;9.146;2023-05-16T09:50:48;5.82;;;3.35;;
7511;SDS011;9999;48.780;9.146;2023-05-16T09:53:17;3.35;;;2.72;;
7511;SDS011;9999;48.780;9.146;2023-05-16T09:55:56;2.60;;;2.35;;
7511;SDS011;9999;48.780;9.146;2023-05-16T09:58:27;4.00;;;2.72;;
7511;SDS011;9999;48.780;9.146;2023-05-16T10:00:55;3.05;;;2.55;;
7511;SDS011;9999;48.780;9.146;2023-05-16T10:03:23;8.35;;;4.43;;
7511;SDS011;9999;48.780;9.146;2023-05-16T10:05:50;4.03;;;2.88;;
7511;SDS011;9999;48.780;9.146;2023-05-16T10:08:18;2.55;;;2.35;;
7511;SDS011;9999;48.780;9.146;2023-05-16T10:10:46;6.80;;;3.03;;
7511;SDS011;9999;48.780;9.146;2023-05-16T10:13:19;4.68;;;2.58;;
7511;SDS011;9999;48.780;9.146;2023-05-16T10:15:47;3.22;;;2.92;;
7511;SDS011;9999;48.780;9.146;2023-05-16T10:18:15;2.22;;;2.03;;
7511;SDS011;9999;48.780;9.146;2023-05-16T10:20:44;4.18;;;2.67;;
7511;SDS011;9999;48.780;9.146;2023-05-16T10:23:15;5.05;;;2.33;;
7511;SDS011;9999;48.780;9.146;2023-05-16T10:25:43;1.55;;;1.45;;
7511;SDS011;9999;48.780;9.146;2023-05-16T10:28:11;3.92;;;1.65;;
7511;SDS011;9999;48.780;9.146;2023-05-16T10:30:40;2.85;;;2.20;;
7511;SDS011;9999;48.780;9.146;2023-05-16T10:33:10;2.15;;;1.95;;
7511;SDS011;9999;48.780;9.146;2023-05-16T10:35:38;3.45;;;2.15;;
7511;SDS011;9999;48.780;9.146;2023-05-16T10:38:05;3.95;;;2.72;;
7511;SDS011;9999;48.780;9.146;2023-05-16T10:40:32;4.93;;;3.33;;
7511;SDS011;9999;48.780;9.146;2023-05-16T10:43:01;2.70;;;2.00;;
7511;SDS011;9999;48.780;9.146;2023-05-16T10:45:29;1.98;;;1.33;;
7511;SDS011;9999;48.780;9.146;2023-05-16T10:47:59;5.70;;;2.33;;
7511;SDS011;9999;48.780;9.146;2023-05-16T10:50:32;3.83;;;3.13;;
7511;SDS011;9999;48.780;9.146;2023-05-16T10:53:12;2.53;;;2.33;;
7511;SDS011;9999;48.780;9.146;2023-05-16T10:55:43;1.85;;;1.75;;
7511;SDS011;9999;48.780;9.146;2023-05-16T10:58:11;1.90;;;1.77;;
7511;SDS011;9999;48.780;9.146;2023-05-16T11:00:38;1.75;;;1.50;;
7511;SDS011;9999;48.780;9.146;2023-05-16T11:03:06;2.15;;;2.03;;
7511;SDS011;9999;48.780;9.146;2023-05-16T11:05:50;1.75;;;1.65;;
7511;SDS011;9999;48.780;9.146;2023-05-16T11:08:18;1.13;;;1.13;;
7511;SDS011;9999;48.780;9.146;2023-05-16T11:10:45;1.70;;;1.38;;
7511;SDS011;9999;48.780;9.146;2023-05-16T11:13:11;3.08;;;2.50;;
7511;SDS011;9999;48.780;9.146;2023-05-16T11:15:43;2.30;;;2.10;;
7511;SDS011;9999;48.780;9.146;2023-05-16T11:18:14;3.72;;;1.65;;
7511;SDS011;9999;48.780;9.146;2023-05-16T11:20:42;1.52;;;1.42;;
7511;SDS011;9999;48.780;9.146;2023-05-16T11:23:19;2.30;;;1.90;;
7511;SDS011;9999;48.780;9.146;2023-05-16T11:25:48;2.97;;;2.67;;
7511;SDS011;9999;48.780;9.146;2023-05-16T11:28:18;2.15;;;1.95;;
7511;SDS011;9999;48.780;9.146;2023-05-16T11:30:46;1.90;;;1.63;;
7511;SDS011;9999;48.780;9.146;2023-05-16T11:33:15;4.43;;;2.08;;
7511;SDS011;9999;48.780;9.146;2023-05-16T11:35:43;1.33;;;1.23;;
7511;SDS011;9999;48.780;9.146;2023-05-16T11:38:24;1.33;;;1.23;;
7511;SDS011;9999;48.780;9.146;2023-05-16T11:40:52;1.75;;;1.65;;
7511;SDS011;9999;48.780;9.146;2023-05-16T11:43:18;1.23;;;1.15;;
7511;SDS011;9999;48.780;9.146;2023-05-16T11:45:45;1.42;;;1.23;;
7511;SDS011;9999;48.780;9.146;2023-05-16T11:48:20;1.70;;;0.88;;
7511;SDS011;9999;48.780;9.146;2023-05-16T11:50:49;1.77;;;1.10;;
7511;SDS011;9999;48.780;9.146;2023-05-16T11:53:17;2.92;;;2.08;;
7511;SDS011;9999;48.780;9.146;2023-05-16T11:55:44;1.20;;;1.20;;
7511;SDS011;9999;48.780;9.146;2023-05-16T11:58:16;1.65;;;1.55;;
7511;SDS011;9999;48.780;9.146;2023-05-16T12:00:46;0.90;;;0.90;;
7511;SDS011;9999;48.780;9.146;2023-05-16T12:03:13;1.48;;;1.00;;
7511;SDS011;9999;48.780;9.146;2023-05-16T12:05:49;2.00;;;1.27;;
7511;SDS011;9999;48.780;9.146;2023-05-16T12:08:17;1.05;;;1.00;;
7511;SDS011;9999;48.780;9.146;2023-05-16T12:10:45;2.28;;;1.30;;
7511;SDS011;9999;48.780;9.146;2023-05-16T12:13:14;0.40;;;0.40;;
7511;SDS011;9999;48.780;9.146;2023-05-16T12:15:41;1.75;;;1.65;;
7511;SDS011;9999;48.780;9.146;2023-05-16T12:18:08;1.73;;;1.45;;
7511;SDS011;9999;48.780;9.146;2023-05-16T12:20:36;1.90;;;0.98;;
7511;SDS011;9999;48.780;9.146;2023-05-16T12:23:04;1.30;;;1.15;;
7511;SDS011;9999;48.780;9.146;2023-05-16T12:25:36;0.75;;;0.75;;
7511;SDS011;9999;48.780;9.146;2023-05-16T12:28:08;0.73;;;0.73;;
7511;SDS011;9999;48.780;9.146;2023-05-16T12:30:38;1.10;;;1.10;;
7511;SDS011;9999;48.780;9.146;2023-05-16T12:33:06;4.15;;;1.13;;
7511;SDS011;9999;48.780;9.146;2023-05-16T12:35:36;2.13;;;1.45;;
7511;SDS011;9999;48.780;9.146;2023-05-16T12:38:05;1.83;;;1.73;;
7511;SDS011;9999;48.780;9.146;2023-05-16T12:40:32;0.45;;;0.45;;
7511;SDS011;9999;48.780;9.146;2023-05-16T12:43:01;1.30;;;1.20;;
7511;SDS011;9999;48.780;9.146;2023-05-16T12:45:28;1.13;;;1.02;;
7511;SDS011;9999;48.780;9.146;2023-05-16T12:47:55;0.80;;;0.77;;
7511;SDS011;9999;48.780;9.146;2023-05-16T12:50:22;0.90;;;0.63;;
7511;SDS011;9999;48.780;9.146;2023-05-16T12:52:52;0.55;;;0.55;;
7511;SDS011;9999;48.780;9.146;2023-05-16T12:55:21;0.47;;;0.47;;
7511;SDS011;9999;48.780;9.146;2023-05-16T12:57:48;0.90;;;0.85;;
7511;SDS011;9999;48.780;9.146;2023-05-16T13:00:16;0.65;;;0.65;;
7511;SDS011;9999;48.780;9.146;2023-05-16T13:02:44;0.50;;;0.50;;
7511;SDS011;9999;48.780;9.146;2023-05-16T13:05:11;1.30;;;1.00;;
7511;SDS011;9999;48.780;9.146;2023-05-16T13:07:38;0.28;;;0.28;;
7511;SDS011;9999;48.780;9.146;2023-05-16T13:10:05;1.63;;;1.52;;
7511;SDS011;9999;48.780;9.146;2023-05-16T13:12:36;3.03;;;0.85;;
7511;SDS011;9999;48.780;9.146;2023-05-16T13:15:04;0.55;;;0.55;;
7511;SDS011;9999;48.780;9.146;2023-05-16T13:17:32;0.63;;;0.63;;
7511;SDS011;9999;48.780;9.146;2023-05-16T13:19:59;0.75;;;0.75;;
7511;SDS011;9999;48.780;9.146;2023-05-16T13:22:25;1.80;;;1.65;;
7511;SDS011;9999;48.780;9.146;2023-05-16T13:24:52;3.60;;;0.88;;
7511;SDS011;9999;48.780;9.146;2023-05-16T13:27:19;0.38;;;0.38;;
7511;SDS011;9999;48.780;9.146;2023-05-16T13:29:47;0.88;;;0.85;;
7511;SDS011;9999;48.780;9.146;2023-05-16T13:32:14;0.63;;;0.63;;
7511;SDS011;9999;48.780;9.146;2023-05-16T13:34:41;0.75;;;0.38;;
7511;SDS011;9999;48.780;9.146;2023-05-16T13:37:09;0.50;;;0.50;;
7511;SDS011;9999;48.780;9.146;2023-05-16T13:39:36;0.98;;;0.75;;
7511;SDS011;9999;48.780;9.146;2023-05-16T13:42:03;1.73;;;1.17;;
7511;SDS011;9999;48.780;9.146;2023-05-16T13:44:30;1.65;;;1.08;;
7511;SDS011;9999;48.780;9.146;2023-05-16T13:46:58;23.48;;;2.92;;
7511;SDS011;9999;48.780;9.146;2023-05-16T13:49:25;6.45;;;0.55;;
7511;SDS011;9999;48.780;9.146;2023-05-16T13:51:52;0.20;;;0.20;;
7511;SDS011;9999;48.780;9.146;2023-05-16T13:54:19;0.95;;;0.50;;
7511;SDS011;9999;48.780;9.146;2023-05-16T13:56:46;4.13;;;0.57;;
7511;SDS011;9999;48.780;9.146;2023-05-16T13:59:13;0.10;;;0.10;;
7511;SDS011;9999;48.780;9.146;2023-05-16T14:01:40;0.45;;;0.45;;
7511;SDS011;9999;48.780;9.146;2023-05-16T14:04:09;0.45;;;0.45;;
7511;SDS011;9999;48.780;9.146;2023-05-16T14:06:36;0.20;;;0.20;;
7511;SDS011;9999;48.780;9.146;2023-05-16T14:09:03;0.52;;;0.52;;
7511;SDS011;9999;48.780;9.146;2023-05-16T14:11:30;0.90;;;0.57;;
7511;SDS011;9999;48.780;9.146;2023-05-16T14:13:57;0.17;;;0.17;;
7511;SDS011;9999;48.780;9.146;2023-05-16T14:16:23;0.43;;;0.38;;
7511;SDS011;9999;48.780;9.146;2023-05-16T14:18:51;0.47;;;0.47;;
7511;SDS011;9999;48.780;9.146;2023-05-16T14:21:19;0.30;;;0.30;;
7511;SDS011;9999;48.780;9.146;2023-05-16T14:23:46;0.52;;;0.52;;
7511;SDS011;9999;48.780;9.146;2023-05-16T14:26:12;0.82;;;0.50;;
7511;SDS011;9999;48.780;9.146;2023-05-16T14:28:40;0.20;;;0.20;;
7511;SDS011;9999;48.780;9.146;2023-05-16T14:31:07;0.95;;;0.82;;
7511;SDS011;9999;48.780;9.146;2023-05-16T14:33:33;2.75;;;0.60;;
7511;SDS011;9999;48.780;9.146;2023-05-16T14:36:00;0.20;;;0.20;;
7511;SDS011;9999;48.780;9.146;2023-05-16T14:38:28;0.45;;;0.40;;
7511;SDS011;9999;48.780;9.146;2023-05-16T14:40:55;0.52;;;0.52;;
7511;SDS011;9999;48.780;9.146;2023-05-16T14:43:22;0.20;;;0.20;;
7511;SDS011;9999;48.780;9.146;2023-05-16T14:45:48;0.10;;;0.10;;
7511;SDS011;9999;48.780;9.146;2023-05-16T14:48:15;0.60;;;0.60;;
7511;SDS011;9999;48.780;9.146;2023-05-16T14:50:42;0.20;;;0.20;;
7511;SDS011;9999;48.780;9.146;2023-05-16T14:53:09;0.52;;;0.52;;
7511;SDS011;9999;48.780;9.146;2023-05-16T14:55:37;0.22;;;0.22;;
7511;SDS011;9999;48.780;9.146;2023-05-16T14:58:04;1.15;;;0.68;;
7511;SDS011;9999;48.780;9.146;2023-05-16T15:00:30;2.10;;;0.80;;
7511;SDS011;9999;48.780;9.146;2023-05-16T15:02:57;0.25;;;0.25;;
7511;SDS011;9999;48.780;9.146;2023-05-16T15:05:24;0.05;;;0.05;;
7511;SDS011;9999;48.780;9.146;2023-05-16T15:07:53;0.22;;;0.22;;
7511;SDS011;9999;48.780;9.146;2023-05-16T15:10:20;0.47;;;0.30;;
7511;SDS011;9999;48.780;9.146;2023-05-16T15:12:48;0.10;;;0.10;;
7511;SDS011;9999;48.780;9.146;2023-05-16T15:15:15;0.20;;;0.20;;
7511;SDS011;9999;48.780;9.146;2023-05-16T15:17:41;0.35;;;0.35;;
7511;SDS011;9999;48.780;9.146;2023-05-16T15:20:09;0.75;;;0.28;;